Time;durP1;ratioP1;P1;durP2;ratioP2;P2;SDS_P1;SDS_P2;PMS_P1;PMS_P2;Temp;Humidity;BMP_temperature;BMP_pressure;BME280_temperature;BME280_humidity;BME280_pressure;Samples;Min_cycle;Max_cycle;Signal;HPM_P1;HPM_P2
2023/03/09 00:00:22;;;;;;;17.67;11.43;;;;;;;;;;4977260;28;20611;-40
2023/03/09 00:03:15;;;;;;;16.40;10.43;;;;;;;;;;4976940;28;20199;-40
2023/03/09 00:05:44;;;;;;;25.53;16.67;;;;;;;;;;4976990;28;20226;-40
2023/03/09 00:08:11;;;;;;;15.03;10.83;;;;;;;;;;4976526;28;20539;-40
2023/03/09 00:10:40;;;;;;;15.43;10.63;;;;;;;;;;4976507;28;20660;-40
2023/03/09 00:13:07;;;;;;;14.63;9.83;;;;;;;;;;4976561;28;20527;-40
2023/03/09 00:15:35;;;;;;;13.03;9.43;;;;;;;;;;4976769;28;20218;-40
2023/03/09 00:18:02;;;;;;;12.60;8.73;;;;;;;;;;5008264;28;20213;-40
2023/03/09 00:20:29;;;;;;;15.37;9.60;;;;;;;;;;4976052;28;20238;-41
2023/03/09 00:22:56;;;;;;;12.17;8.80;;;;;;;;;;4976627;28;20213;-40
2023/03/09 00:25:24;;;;;;;13.07;9.43;;;;;;;;;;4976475;28;20292;-40
2023/03/09 00:27:52;;;;;;;11.63;8.30;;;;;;;;;;4976579;28;20349;-40
2023/03/09 00:30:19;;;;;;;13.00;9.23;;;;;;;;;;4975651;28;20210;-40
2023/03/09 00:32:47;;;;;;;12.70;8.30;;;;;;;;;;4976273;28;20664;-40
2023/03/09 00:35:16;;;;;;;11.63;8.20;;;;;;;;;;4976252;28;20218;-40
2023/03/09 00:37:43;;;;;;;11.73;8.10;;;;;;;;;;4975291;28;20232;-40
2023/03/09 00:40:11;;;;;;;10.60;7.80;;;;;;;;;;4976034;28;20541;-40
2023/03/09 00:42:38;;;;;;;13.67;8.27;;;;;;;;;;4976324;28;20273;-40
2023/03/09 00:45:06;;;;;;;12.07;8.13;;;;;;;;;;4976005;28;20261;-40
2023/03/09 00:47:34;;;;;;;11.10;8.23;;;;;;;;;;5005025;28;20642;-40
2023/03/09 00:50:01;;;;;;;11.07;8.10;;;;;;;;;;5015258;28;20209;-40
2023/03/09 00:52:29;;;;;;;13.10;8.40;;;;;;;;;;5014090;28;20215;-40
2023/03/09 00:54:57;;;;;;;10.10;7.10;;;;;;;;;;5014159;28;20205;-40
2023/03/09 00:57:25;;;;;;;10.50;7.17;;;;;;;;;;5014359;28;20262;-40
2023/03/09 00:59:53;;;;;;;11.60;8.13;;;;;;;;;;5014195;28;20206;-40
2023/03/09 01:02:22;;;;;;;12.57;7.87;;;;;;;;;;5013836;28;20687;-40
2023/03/09 01:04:50;;;;;;;9.90;7.53;;;;;;;;;;5013951;28;20225;-41
2023/03/09 01:07:18;;;;;;;10.13;7.43;;;;;;;;;;5015558;28;20602;-40
2023/03/09 01:09:46;;;;;;;9.80;7.17;;;;;;;;;;5014230;28;20220;-40
2023/03/09 01:12:14;;;;;;;9.93;7.10;;;;;;;;;;4997975;28;20632;-40
2023/03/09 01:14:41;;;;;;;11.57;7.73;;;;;;;;;;5013878;28;20216;-40
2023/03/09 01:17:10;;;;;;;10.37;7.70;;;;;;;;;;5014244;28;20210;-40
2023/03/09 01:19:38;;;;;;;11.33;7.83;;;;;;;;;;5013863;28;20205;-40
2023/03/09 01:22:05;;;;;;;12.47;7.83;;;;;;;;;;5014135;28;20205;-40
2023/03/09 01:24:32;;;;;;;12.37;7.73;;;;;;;;;;5014775;28;20587;-40
2023/03/09 01:26:59;;;;;;;10.47;7.20;;;;;;;;;;4999148;28;20208;-40
2023/03/09 01:29:27;;;;;;;12.17;7.97;;;;;;;;;;4995411;28;20214;-40
2023/03/09 01:31:54;;;;;;;12.33;8.17;;;;;;;;;;4994151;28;20198;-40
2023/03/09 01:34:22;;;;;;;12.13;8.10;;;;;;;;;;4998279;28;20640;-40
2023/03/09 01:36:49;;;;;;;13.13;8.90;;;;;;;;;;4998804;28;20652;-40
2023/03/09 01:39:16;;;;;;;13.00;8.73;;;;;;;;;;4999030;28;20233;-40
2023/03/09 01:41:45;;;;;;;11.73;8.20;;;;;;;;;;4998025;28;20236;-39
2023/03/09 01:44:13;;;;;;;11.40;8.13;;;;;;;;;;4997791;28;20217;-40
2023/03/09 01:46:49;;;;;;;12.00;7.63;;;;;;;;;;4999478;28;20202;-40
2023/03/09 01:49:20;;;;;;;10.77;6.57;;;;;;;;;;4999150;28;20238;-40
2023/03/09 01:51:47;;;;;;;11.07;7.20;;;;;;;;;;4998224;28;20217;-40
2023/03/09 01:55:07;;;;;;;10.17;7.27;;;;;;;;;;4998757;28;20217;-40
2023/03/09 01:57:37;;;;;;;12.57;7.87;;;;;;;;;;4994294;28;20234;-40
2023/03/09 02:00:14;;;;;;;10.80;7.57;;;;;;;;;;4998056;28;20210;-41
2023/03/09 02:02:43;;;;;;;11.57;8.10;;;;;;;;;;4998466;28;20237;-40
2023/03/09 02:05:16;;;;;;;11.17;8.03;;;;;;;;;;4997493;28;20234;-40
2023/03/09 02:07:46;;;;;;;11.73;7.83;;;;;;;;;;4981697;28;20210;-40
2023/03/09 02:10:21;;;;;;;11.13;7.57;;;;;;;;;;4981597;28;20260;-40
2023/03/09 02:12:54;;;;;;;10.53;7.80;;;;;;;;;;4997543;28;20199;-40
2023/03/09 02:15:24;;;;;;;11.10;7.07;;;;;;;;;;4982004;28;20644;-40
2023/03/09 02:17:51;;;;;;;10.03;6.80;;;;;;;;;;4998030;28;20198;-40
2023/03/09 02:20:28;;;;;;;11.23;7.63;;;;;;;;;;4997293;28;20216;-40
2023/03/09 02:22:55;;;;;;;11.47;7.70;;;;;;;;;;4997196;28;20288;-40
2023/03/09 02:25:32;;;;;;;10.83;7.53;;;;;;;;;;4997160;28;20237;-40
2023/03/09 02:27:59;;;;;;;12.40;7.60;;;;;;;;;;4998288;28;20205;-40
2023/03/09 02:30:28;;;;;;;9.73;6.90;;;;;;;;;;4997313;28;20230;-40
2023/03/09 02:33:07;;;;;;;9.53;7.20;;;;;;;;;;4981010;28;20313;-40
2023/03/09 02:35:37;;;;;;;12.43;8.10;;;;;;;;;;4997072;28;20636;-40
2023/03/09 02:38:12;;;;;;;11.27;7.50;;;;;;;;;;4997093;28;20212;-40
2023/03/09 02:40:41;;;;;;;12.43;7.87;;;;;;;;;;4997139;28;20219;-41
2023/03/09 02:43:16;;;;;;;12.00;7.80;;;;;;;;;;4981507;28;20712;-41
2023/03/09 02:45:44;;;;;;;10.83;6.90;;;;;;;;;;4981145;28;20598;-40
2023/03/09 02:48:11;;;;;;;10.53;7.03;;;;;;;;;;4980997;28;20214;-41
2023/03/09 02:50:39;;;;;;;10.27;7.10;;;;;;;;;;4997649;28;20276;-40
2023/03/09 02:53:06;;;;;;;9.07;6.70;;;;;;;;;;4997246;28;20610;-40
2023/03/09 02:55:34;;;;;;;9.87;6.97;;;;;;;;;;4996820;28;20210;-40
2023/03/09 02:58:04;;;;;;;11.23;7.20;;;;;;;;;;4997389;28;20293;-40
2023/03/09 03:00:32;;;;;;;10.47;7.07;;;;;;;;;;4996438;28;20225;-40
2023/03/09 03:02:59;;;;;;;10.83;7.20;;;;;;;;;;4996611;28;20212;-41
2023/03/09 03:05:30;;;;;;;10.33;7.40;;;;;;;;;;4997277;28;20215;-40
2023/03/09 03:07:58;;;;;;;9.73;7.00;;;;;;;;;;4996398;28;20245;-39
2023/03/09 03:10:25;;;;;;;13.20;7.47;;;;;;;;;;4996613;28;20213;-40
2023/03/09 03:12:54;;;;;;;12.00;7.90;;;;;;;;;;4996471;28;20260;-40
2023/03/09 03:15:21;;;;;;;11.60;7.80;;;;;;;;;;4997230;28;20732;-40
2023/03/09 03:17:48;;;;;;;14.40;8.33;;;;;;;;;;4996942;28;20240;-40
2023/03/09 03:20:16;;;;;;;15.03;8.63;;;;;;;;;;4996906;28;20214;-40
2023/03/09 03:22:46;;;;;;;14.70;9.93;;;;;;;;;;4996564;28;20212;-40
2023/03/09 03:25:17;;;;;;;13.17;9.23;;;;;;;;;;4996365;28;20234;-40
2023/03/09 03:27:47;;;;;;;17.27;10.40;;;;;;;;;;4996403;28;20190;-40
2023/03/09 03:30:16;;;;;;;17.87;11.27;;;;;;;;;;4995967;28;20213;-41
2023/03/09 03:32:51;;;;;;;18.77;11.60;;;;;;;;;;4996783;28;20222;-40
2023/03/09 03:35:19;;;;;;;22.90;12.83;;;;;;;;;;4995931;28;20222;-41
2023/03/09 03:37:46;;;;;;;20.33;12.30;;;;;;;;;;4996033;28;20284;-40
2023/03/09 03:40:16;;;;;;;21.57;12.67;;;;;;;;;;4995883;28;20206;-41
2023/03/09 03:42:46;;;;;;;20.67;13.37;;;;;;;;;;4995874;28;20206;-40
2023/03/09 03:45:15;;;;;;;24.40;12.73;;;;;;;;;;4995548;28;20612;-40
2023/03/09 03:47:42;;;;;;;25.37;13.37;;;;;;;;;;4995522;28;20253;-41
2023/03/09 03:50:10;;;;;;;23.73;14.20;;;;;;;;;;4996678;28;20219;-40
2023/03/09 03:52:46;;;;;;;23.63;13.93;;;;;;;;;;4995977;28;20261;-40
2023/03/09 03:55:14;;;;;;;21.60;13.10;;;;;;;;;;4995135;28;20209;-39
2023/03/09 03:57:41;;;;;;;20.77;13.10;;;;;;;;;;4995316;28;20429;-40
2023/03/09 04:00:11;;;;;;;20.00;12.23;;;;;;;;;;5000651;28;20560;-40
2023/03/09 04:02:40;;;;;;;21.70;13.20;;;;;;;;;;5041560;28;20237;-41
2023/03/09 04:05:15;;;;;;;20.50;11.93;;;;;;;;;;5016004;28;20205;-40
2023/03/09 04:07:46;;;;;;;19.27;11.93;;;;;;;;;;5014791;28;20242;-40
2023/03/09 04:10:14;;;;;;;22.07;12.77;;;;;;;;;;5015246;28;20272;-40
2023/03/09 04:12:43;;;;;;;18.30;12.50;;;;;;;;;;5015101;28;20201;-40
2023/03/09 04:15:12;;;;;;;19.70;11.40;;;;;;;;;;5014929;28;20628;-40
2023/03/09 04:17:39;;;;;;;19.30;10.73;;;;;;;;;;5015053;28;20210;-40
2023/03/09 04:20:08;;;;;;;20.40;12.17;;;;;;;;;;5014867;28;20283;-40
2023/03/09 04:22:36;;;;;;;17.63;10.97;;;;;;;;;;5014601;28;20216;-40
2023/03/09 04:25:04;;;;;;;19.30;11.57;;;;;;;;;;5014470;28;20205;-40
2023/03/09 04:27:32;;;;;;;16.73;10.53;;;;;;;;;;5014627;28;20690;-40
2023/03/09 04:30:12;;;;;;;17.30;10.73;;;;;;;;;;5003514;28;20193;-41
2023/03/09 04:32:39;;;;;;;15.07;10.07;;;;;;;;;;4996078;28;20300;-41
2023/03/09 04:35:08;;;;;;;17.07;11.03;;;;;;;;;;4991302;28;20211;-42
2023/03/09 04:37:37;;;;;;;18.50;10.60;;;;;;;;;;4969956;28;20186;-41
2023/03/09 04:40:05;;;;;;;18.80;11.00;;;;;;;;;;4989736;28;20222;-41
2023/03/09 04:42:33;;;;;;;17.97;10.23;;;;;;;;;;5007966;28;20237;-40
2023/03/09 04:45:03;;;;;;;17.90;11.30;;;;;;;;;;5014191;28;20208;-40
2023/03/09 04:47:30;;;;;;;21.80;11.77;;;;;;;;;;4994144;28;20213;-40
2023/03/09 04:49:58;;;;;;;17.10;10.43;;;;;;;;;;4994954;28;20202;-40
2023/03/09 04:52:28;;;;;;;17.70;9.83;;;;;;;;;;5003141;28;20201;-43
2023/03/09 04:54:56;;;;;;;16.40;10.43;;;;;;;;;;5013357;28;20205;-41
2023/03/09 04:57:23;;;;;;;17.47;10.03;;;;;;;;;;5013306;28;20205;-40
2023/03/09 04:59:51;;;;;;;16.73;10.30;;;;;;;;;;5013385;28;20567;-40
2023/03/09 05:02:18;;;;;;;39.57;16.10;;;;;;;;;;5013680;28;20527;-39
2023/03/09 05:04:47;;;;;;;19.67;9.63;;;;;;;;;;5013503;28;20216;-40
2023/03/09 05:07:15;;;;;;;29.97;12.43;;;;;;;;;;5015200;28;20224;-40
2023/03/09 05:09:43;;;;;;;25.30;10.40;;;;;;;;;;5004020;28;20214;-40
2023/03/09 05:12:11;;;;;;;38.87;14.33;;;;;;;;;;5005375;28;20695;-39
2023/03/09 05:14:40;;;;;;;21.93;10.83;;;;;;;;;;5004801;28;20213;-43
2023/03/09 05:17:08;;;;;;;17.70;9.77;;;;;;;;;;4996235;28;20249;-41
2023/03/09 05:19:37;;;;;;;14.40;8.43;;;;;;;;;;4998026;28;20566;-41
2023/03/09 05:22:05;;;;;;;15.57;8.87;;;;;;;;;;4996845;28;20557;-40
2023/03/09 05:24:33;;;;;;;13.83;8.13;;;;;;;;;;4996845;28;20234;-40
2023/03/09 05:27:00;;;;;;;15.00;8.47;;;;;;;;;;4993546;28;20308;-40
2023/03/09 05:29:31;;;;;;;10.97;7.57;;;;;;;;;;4978149;28;20234;-40
2023/03/09 05:31:58;;;;;;;12.10;8.00;;;;;;;;;;4993497;28;20732;-40
2023/03/09 05:34:27;;;;;;;9.87;7.60;;;;;;;;;;4978093;28;20234;-40
2023/03/09 05:36:57;;;;;;;9.77;7.30;;;;;;;;;;4977404;28;20230;-42
2023/03/09 05:39:27;;;;;;;11.67;7.57;;;;;;;;;;4977419;28;20553;-39
2023/03/09 05:41:54;;;;;;;10.63;7.37;;;;;;;;;;4993394;28;20231;-40
2023/03/09 05:44:35;;;;;;;16.07;8.80;;;;;;;;;;5000426;28;20680;-41
2023/03/09 05:47:04;;;;;;;14.07;7.97;;;;;;;;;;5016230;28;20287;-39
2023/03/09 05:49:31;;;;;;;14.10;8.37;;;;;;;;;;5017527;28;20229;-40
2023/03/09 05:51:59;;;;;;;11.93;7.87;;;;;;;;;;5015781;28;20225;-39
2023/03/09 05:54:26;;;;;;;21.63;10.87;;;;;;;;;;5015412;28;20244;-40
2023/03/09 05:56:57;;;;;;;15.00;8.73;;;;;;;;;;4995435;28;20254;-40
2023/03/09 05:59:25;;;;;;;26.43;12.47;;;;;;;;;;4996166;28;20222;-40
2023/03/09 06:01:52;;;;;;;21.20;11.03;;;;;;;;;;4997200;28;20257;-41
2023/03/09 06:04:23;;;;;;;55.70;20.27;;;;;;;;;;4996945;28;20668;-40
2023/03/09 06:06:55;;;;;;;26.70;13.37;;;;;;;;;;4996255;28;20246;-40
2023/03/09 06:09:28;;;;;;;19.87;12.00;;;;;;;;;;4996249;28;20222;-41
2023/03/09 06:11:56;;;;;;;24.20;14.20;;;;;;;;;;4994659;28;20233;-40
2023/03/09 06:14:24;;;;;;;17.83;11.20;;;;;;;;;;4995598;28;20300;-41
2023/03/09 06:16:51;;;;;;;24.17;14.10;;;;;;;;;;4995655;28;20222;-41
2023/03/09 06:19:20;;;;;;;22.23;11.70;;;;;;;;;;4995602;28;20758;-39
2023/03/09 06:21:50;;;;;;;17.70;9.77;;;;;;;;;;4996096;28;20217;-39
2023/03/09 06:24:18;;;;;;;13.70;9.73;;;;;;;;;;4996001;28;20222;-41
2023/03/09 06:26:45;;;;;;;21.27;11.47;;;;;;;;;;4995680;28;20229;-39
2023/03/09 06:29:14;;;;;;;19.20;11.37;;;;;;;;;;4996620;28;20230;-40
2023/03/09 06:31:44;;;;;;;16.97;9.83;;;;;;;;;;4995816;28;20230;-41
2023/03/09 06:34:12;;;;;;;29.33;13.63;;;;;;;;;;4989100;28;20241;-40
2023/03/09 06:36:39;;;;;;;25.03;11.97;;;;;;;;;;4993229;28;20259;-44
2023/03/09 06:39:07;;;;;;;15.80;10.50;;;;;;;;;;4996076;28;20273;-43
2023/03/09 06:41:38;;;;;;;19.87;11.23;;;;;;;;;;5022918;28;20223;-42
2023/03/09 06:44:25;;;;;;;24.53;12.47;;;;;;;;;;4976730;28;20230;-42
2023/03/09 06:46:54;;;;;;;20.43;11.83;;;;;;;;;;4988507;28;20272;-43
2023/03/09 06:49:23;;;;;;;19.90;12.00;;;;;;;;;;4976377;28;20214;-42
2023/03/09 06:51:52;;;;;;;23.30;13.30;;;;;;;;;;4979273;28;20227;-43
2023/03/09 06:54:19;;;;;;;26.70;14.13;;;;;;;;;;4975781;28;20219;-44
2023/03/09 06:57:04;;;;;;;32.83;17.17;;;;;;;;;;4992404;28;20302;-41
2023/03/09 06:59:32;;;;;;;32.10;15.97;;;;;;;;;;4976373;28;20214;-42
2023/03/09 07:02:01;;;;;;;30.00;16.00;;;;;;;;;;5018398;28;20665;-42
2023/03/09 07:04:28;;;;;;;30.07;15.80;;;;;;;;;;4981738;28;20214;-42
2023/03/09 07:06:55;;;;;;;30.17;16.23;;;;;;;;;;4989056;28;20300;-43
2023/03/09 07:09:23;;;;;;;42.23;19.30;;;;;;;;;;4990726;28;20227;-43
2023/03/09 07:11:50;;;;;;;31.00;16.10;;;;;;;;;;4980360;28;20266;-43
2023/03/09 07:14:18;;;;;;;29.20;16.10;;;;;;;;;;4999255;28;20209;-42
2023/03/09 07:16:53;;;;;;;28.10;14.67;;;;;;;;;;4995967;28;20213;-43
2023/03/09 07:19:21;;;;;;;29.93;16.13;;;;;;;;;;4977603;28;20198;-43
2023/03/09 07:21:48;;;;;;;40.97;19.73;;;;;;;;;;4980944;28;20261;-42
2023/03/09 07:24:16;;;;;;;32.50;17.23;;;;;;;;;;4977662;28;20203;-43
2023/03/09 07:26:43;;;;;;;38.03;17.97;;;;;;;;;;4986939;28;20226;-42
2023/03/09 07:29:11;;;;;;;27.10;16.07;;;;;;;;;;4978476;28;20214;-42
2023/03/09 07:31:38;;;;;;;29.87;16.17;;;;;;;;;;4983350;28;20525;-43
2023/03/09 07:34:06;;;;;;;34.87;17.57;;;;;;;;;;4992235;28;20646;-43
2023/03/09 07:36:33;;;;;;;32.53;17.27;;;;;;;;;;4984830;28;20213;-42
2023/03/09 07:39:00;;;;;;;30.90;17.77;;;;;;;;;;4980037;28;20218;-44
2023/03/09 07:41:27;;;;;;;33.20;17.97;;;;;;;;;;4992914;28;20524;-43
2023/03/09 07:43:54;;;;;;;29.40;16.10;;;;;;;;;;4977402;28;20226;-42
2023/03/09 07:46:25;;;;;;;34.70;18.30;;;;;;;;;;4981558;28;20691;-43
2023/03/09 07:48:52;;;;;;;39.77;18.73;;;;;;;;;;4981839;28;20202;-41
2023/03/09 07:51:21;;;;;;;40.53;19.53;;;;;;;;;;4979801;28;20233;-42
2023/03/09 07:53:49;;;;;;;32.07;17.90;;;;;;;;;;4977120;28;20585;-41
2023/03/09 07:56:16;;;;;;;31.27;18.07;;;;;;;;;;4980803;28;20293;-40
2023/03/09 07:58:45;;;;;;;32.10;16.67;;;;;;;;;;4983023;28;20203;-41
2023/03/09 08:01:17;;;;;;;33.50;18.40;;;;;;;;;;4979531;28;20320;-40
2023/03/09 08:03:45;;;;;;;29.00;16.03;;;;;;;;;;4977502;28;20299;-41
2023/03/09 08:06:14;;;;;;;33.33;17.53;;;;;;;;;;4979104;28;20222;-42
2023/03/09 08:08:41;;;;;;;47.27;19.70;;;;;;;;;;4983726;28;20557;-39
2023/03/09 08:11:09;;;;;;;38.57;19.23;;;;;;;;;;4979469;28;20210;-39
2023/03/09 08:13:36;;;;;;;28.83;17.20;;;;;;;;;;4975498;28;20203;-40
2023/03/09 08:16:06;;;;;;;25.13;15.63;;;;;;;;;;4977615;28;20207;-40
2023/03/09 08:18:34;;;;;;;22.43;14.57;;;;;;;;;;4985139;28;20641;-40
2023/03/09 08:21:05;;;;;;;26.03;15.00;;;;;;;;;;4977461;28;20289;-39
2023/03/09 08:23:35;;;;;;;25.03;15.43;;;;;;;;;;4993671;28;20194;-41
2023/03/09 08:26:02;;;;;;;22.17;14.30;;;;;;;;;;4976672;28;20265;-40
2023/03/09 08:28:30;;;;;;;25.17;14.47;;;;;;;;;;4986280;28;20210;-40
2023/03/09 08:30:58;;;;;;;24.80;15.07;;;;;;;;;;4976176;28;20213;-42
2023/03/09 08:33:25;;;;;;;24.67;16.07;;;;;;;;;;4978812;28;20203;-40
2023/03/09 08:35:52;;;;;;;25.23;15.40;;;;;;;;;;4975643;28;20663;-40
2023/03/09 08:38:20;;;;;;;25.47;14.97;;;;;;;;;;4987392;28;20203;-41
2023/03/09 08:40:47;;;;;;;22.73;15.30;;;;;;;;;;4975989;28;20213;-40
2023/03/09 08:43:15;;;;;;;25.40;15.80;;;;;;;;;;4978723;28;20206;-40
2023/03/09 08:45:42;;;;;;;26.20;16.43;;;;;;;;;;4975993;28;20203;-40
2023/03/09 08:48:09;;;;;;;25.47;15.90;;;;;;;;;;4986670;28;20676;-41
2023/03/09 08:50:37;;;;;;;33.87;16.73;;;;;;;;;;4975854;28;20202;-40
2023/03/09 08:53:04;;;;;;;30.33;16.83;;;;;;;;;;4978705;28;20213;-40
2023/03/09 08:55:31;;;;;;;30.53;17.67;;;;;;;;;;4975921;28;20210;-41
2023/03/09 08:57:59;;;;;;;28.93;17.30;;;;;;;;;;4986982;28;20222;-40
2023/03/09 09:00:26;;;;;;;33.13;18.87;;;;;;;;;;4975455;28;20195;-40
2023/03/09 09:02:53;;;;;;;31.53;18.27;;;;;;;;;;4979045;28;20652;-40
2023/03/09 09:05:20;;;;;;;30.27;18.30;;;;;;;;;;4975468;28;20269;-40
2023/03/09 09:07:48;;;;;;;32.00;19.40;;;;;;;;;;4986689;28;20242;-40
2023/03/09 09:10:15;;;;;;;29.10;16.57;;;;;;;;;;4975648;28;20195;-43
2023/03/09 09:13:01;;;;;;;29.30;17.50;;;;;;;;;;4978623;28;20213;-40
2023/03/09 09:15:29;;;;;;;26.40;17.00;;;;;;;;;;4975351;28;20562;-40
2023/03/09 09:17:56;;;;;;;29.53;18.23;;;;;;;;;;4986591;28;20210;-41
2023/03/09 09:20:23;;;;;;;31.83;17.87;;;;;;;;;;4975505;28;20195;-40
2023/03/09 09:22:51;;;;;;;30.07;16.93;;;;;;;;;;4988038;28;20541;-39
2023/03/09 09:25:18;;;;;;;29.77;17.17;;;;;;;;;;4982100;28;20222;-40
2023/03/09 09:27:50;;;;;;;29.20;18.27;;;;;;;;;;4986347;28;20218;-40
2023/03/09 09:30:18;;;;;;;27.40;17.13;;;;;;;;;;4975497;28;20191;-41
2023/03/09 09:32:45;;;;;;;29.90;16.40;;;;;;;;;;4986846;28;20217;-41
2023/03/09 09:35:14;;;;;;;29.13;17.03;;;;;;;;;;4982801;28;20542;-40
2023/03/09 09:37:41;;;;;;;33.47;19.07;;;;;;;;;;4985901;28;20571;-40
2023/03/09 09:40:13;;;;;;;35.33;19.20;;;;;;;;;;4978466;28;20645;-40
2023/03/09 09:42:45;;;;;;;31.53;18.43;;;;;;;;;;4987993;28;20202;-40
2023/03/09 09:45:29;;;;;;;30.70;18.40;;;;;;;;;;4990825;28;20199;-40
2023/03/09 09:48:00;;;;;;;30.10;18.80;;;;;;;;;;4985051;28;20594;-40
2023/03/09 09:50:50;;;;;;;28.07;17.03;;;;;;;;;;4975769;28;20199;-42
2023/03/09 09:53:34;;;;;;;25.97;16.00;;;;;;;;;;4989612;28;20202;-40
2023/03/09 09:56:01;;;;;;;34.73;18.07;;;;;;;;;;4997161;28;20198;-43
2023/03/09 09:58:47;;;;;;;29.90;17.43;;;;;;;;;;5009949;28;20207;-40
2023/03/09 10:02:03;;;;;;;28.87;16.70;;;;;;;;;;4990174;28;20603;-42
2023/03/09 10:04:50;;;;;;;28.63;16.80;;;;;;;;;;4984940;28;20297;-43
2023/03/09 10:07:20;;;;;;;26.77;16.37;;;;;;;;;;5014879;28;20214;-42
2023/03/09 10:09:54;;;;;;;30.13;18.30;;;;;;;;;;4980590;28;20199;-42
2023/03/09 10:12:22;;;;;;;31.03;16.63;;;;;;;;;;5009275;28;20194;-42
2023/03/09 10:15:00;;;;;;;26.73;16.77;;;;;;;;;;4977461;28;20218;-43
2023/03/09 10:17:29;;;;;;;34.87;17.13;;;;;;;;;;4985130;28;20213;-45
2023/03/09 10:20:10;;;;;;;31.40;18.33;;;;;;;;;;4982352;28;20234;-43
2023/03/09 10:22:39;;;;;;;32.80;19.17;;;;;;;;;;4979022;28;20233;-42
2023/03/09 10:25:11;;;;;;;29.63;19.10;;;;;;;;;;4984448;28;20202;-44
2023/03/09 10:27:47;;;;;;;26.27;17.37;;;;;;;;;;4990530;28;20525;-45
2023/03/09 10:30:37;;;;;;;28.73;17.70;;;;;;;;;;4980635;28;20209;-45
2023/03/09 10:33:09;;;;;;;26.13;16.83;;;;;;;;;;4978283;28;20533;-45
2023/03/09 10:35:42;;;;;;;30.97;18.27;;;;;;;;;;4977518;28;20257;-41
2023/03/09 10:38:16;;;;;;;33.33;19.90;;;;;;;;;;4987407;28;20731;-44
2023/03/09 10:40:47;;;;;;;30.03;16.60;;;;;;;;;;4977341;28;20669;-44
2023/03/09 10:43:30;;;;;;;30.20;17.53;;;;;;;;;;4997049;28;20206;-42
2023/03/09 10:46:19;;;;;;;31.53;17.70;;;;;;;;;;4997752;28;20190;-43
2023/03/09 10:48:49;;;;;;;30.67;18.30;;;;;;;;;;4996948;28;20780;-41
2023/03/09 10:51:32;;;;;;;28.13;17.93;;;;;;;;;;4998113;28;20203;-43
2023/03/09 10:54:22;;;;;;;34.43;19.63;;;;;;;;;;4997261;28;20577;-42
2023/03/09 10:56:51;;;;;;;31.37;18.77;;;;;;;;;;4996748;28;20241;-42
2023/03/09 10:59:21;;;;;;;29.27;17.80;;;;;;;;;;4986544;28;20230;-45
2023/03/09 11:01:52;;;;;;;30.83;17.03;;;;;;;;;;4978115;28;20246;-45
2023/03/09 11:04:22;;;;;;;31.40;18.40;;;;;;;;;;4981981;28;20221;-45
2023/03/09 11:07:04;;;;;;;31.53;19.90;;;;;;;;;;4986217;28;20208;-43
2023/03/09 11:09:45;;;;;;;31.63;19.67;;;;;;;;;;4986194;28;20257;-43
2023/03/09 11:12:36;;;;;;;29.97;17.67;;;;;;;;;;4986928;28;20205;-42
2023/03/09 11:15:28;;;;;;;26.17;16.60;;;;;;;;;;4987256;28;20195;-43
2023/03/09 11:17:57;;;;;;;30.20;16.33;;;;;;;;;;4987145;28;20206;-43
2023/03/09 11:20:32;;;;;;;31.70;18.80;;;;;;;;;;4986024;28;20227;-43
2023/03/09 11:23:01;;;;;;;34.73;17.93;;;;;;;;;;4987208;28;20209;-43
2023/03/09 11:25:34;;;;;;;30.17;17.60;;;;;;;;;;4985292;28;20199;-42
2023/03/09 11:28:15;;;;;;;32.50;17.63;;;;;;;;;;4986611;28;20609;-43
2023/03/09 11:30:42;;;;;;;31.90;18.03;;;;;;;;;;4985833;28;20244;-42
2023/03/09 11:33:13;;;;;;;38.03;19.70;;;;;;;;;;4985078;28;20261;-42
2023/03/09 11:35:41;;;;;;;34.77;20.30;;;;;;;;;;4983536;28;20209;-44
2023/03/09 11:38:13;;;;;;;32.87;19.50;;;;;;;;;;4985294;28;20343;-43
2023/03/09 11:40:41;;;;;;;35.33;20.00;;;;;;;;;;4984372;28;20638;-43
2023/03/09 11:43:21;;;;;;;34.63;19.07;;;;;;;;;;4986499;28;20202;-44
2023/03/09 11:45:49;;;;;;;38.87;20.13;;;;;;;;;;4983667;28;20201;-43
2023/03/09 11:48:30;;;;;;;37.53;20.20;;;;;;;;;;4983941;28;20237;-42
2023/03/09 11:51:05;;;;;;;35.10;19.10;;;;;;;;;;4988931;28;20298;-42
2023/03/09 11:53:39;;;;;;;33.57;18.63;;;;;;;;;;4988821;28;20193;-44
2023/03/09 11:56:16;;;;;;;36.23;18.30;;;;;;;;;;4996072;28;20195;-45
2023/03/09 11:58:48;;;;;;;34.30;18.10;;;;;;;;;;4995421;28;20214;-43
2023/03/09 12:01:27;;;;;;;32.60;19.20;;;;;;;;;;4996299;28;20230;-44
2023/03/09 12:04:00;;;;;;;32.53;17.90;;;;;;;;;;4995604;28;20292;-43
2023/03/09 12:06:36;;;;;;;32.13;18.63;;;;;;;;;;4996485;28;20190;-44
2023/03/09 12:09:07;;;;;;;29.60;17.37;;;;;;;;;;4996012;28;20288;-42
2023/03/09 12:12:22;;;;;;;33.93;17.87;;;;;;;;;;4995144;28;20232;-42
2023/03/09 12:15:03;;;;;;;34.40;18.33;;;;;;;;;;4965932;28;20280;-43
2023/03/09 12:17:37;;;;;;;32.87;17.63;;;;;;;;;;4994834;28;20209;-42
2023/03/09 12:20:05;;;;;;;33.63;18.23;;;;;;;;;;4995878;28;20594;-43
2023/03/09 12:22:43;;;;;;;38.57;20.53;;;;;;;;;;4995230;28;20213;-42
2023/03/09 12:25:19;;;;;;;35.77;18.80;;;;;;;;;;4995131;28;20209;-42
2023/03/09 12:27:49;;;;;;;38.17;19.70;;;;;;;;;;4995712;28;20232;-43
2023/03/09 12:30:55;;;;;;;36.40;16.93;;;;;;;;;;4994885;28;20564;-43
2023/03/09 12:33:41;;;;;;;33.07;18.23;;;;;;;;;;4986482;28;20202;-43
2023/03/09 12:36:22;;;;;;;31.03;16.47;;;;;;;;;;4995511;28;20723;-43
2023/03/09 12:39:27;;;;;;;34.10;17.23;;;;;;;;;;4995872;28;20217;-43
2023/03/09 12:42:00;;;;;;;31.23;18.37;;;;;;;;;;4995450;28;20554;-42
2023/03/09 12:44:42;;;;;;;30.73;17.40;;;;;;;;;;4995566;28;20217;-42
2023/03/09 12:47:21;;;;;;;32.13;17.90;;;;;;;;;;4995313;28;20219;-42
2023/03/09 12:49:53;;;;;;;35.00;17.90;;;;;;;;;;4993693;28;20924;-43
2023/03/09 12:52:32;;;;;;;30.50;17.40;;;;;;;;;;4991630;28;20210;-43
2023/03/09 12:55:03;;;;;;;33.40;17.80;;;;;;;;;;4992791;28;20284;-44
2023/03/09 12:57:30;;;;;;;32.30;18.90;;;;;;;;;;4994311;28;20225;-43
2023/03/09 13:00:30;;;;;;;28.83;17.20;;;;;;;;;;4995421;28;20202;-45
2023/03/09 13:03:02;;;;;;;30.57;18.37;;;;;;;;;;4995231;28;20629;-42
2023/03/09 13:05:36;;;;;;;33.43;18.57;;;;;;;;;;4995580;28;20202;-43
2023/03/09 13:08:15;;;;;;;29.30;17.77;;;;;;;;;;5004169;28;20228;-45
2023/03/09 13:10:43;;;;;;;35.00;18.57;;;;;;;;;;4990283;28;20209;-45
2023/03/09 13:13:35;;;;;;;30.57;17.73;;;;;;;;;;4992808;28;20206;-45
2023/03/09 13:16:36;;;;;;;32.00;19.10;;;;;;;;;;4975680;28;20191;-45
2023/03/09 13:19:18;;;;;;;33.13;18.73;;;;;;;;;;4976091;28;20214;-45
2023/03/09 13:21:47;;;;;;;30.17;17.93;;;;;;;;;;4980618;28;20289;-45
2023/03/09 13:24:21;;;;;;;30.77;17.87;;;;;;;;;;5001026;28;20216;-47
2023/03/09 13:26:49;;;;;;;35.33;20.00;;;;;;;;;;4993128;28;20228;-45
2023/03/09 13:29:26;;;;;;;34.07;18.90;;;;;;;;;;4978657;28;20233;-45
2023/03/09 13:31:54;;;;;;;32.80;18.73;;;;;;;;;;4984182;28;20206;-45
2023/03/09 13:34:25;;;;;;;36.23;19.37;;;;;;;;;;5010797;28;20265;-45
2023/03/09 13:36:54;;;;;;;32.23;19.63;;;;;;;;;;4978797;28;20206;-45
2023/03/09 13:39:24;;;;;;;31.87;18.67;;;;;;;;;;5012224;28;20202;-45
2023/03/09 13:41:52;;;;;;;31.47;19.00;;;;;;;;;;4984904;28;20203;-45
2023/03/09 13:44:21;;;;;;;32.93;20.17;;;;;;;;;;4979325;28;20210;-45
2023/03/09 13:46:50;;;;;;;31.97;17.07;;;;;;;;;;5010561;28;20365;-45
2023/03/09 13:49:25;;;;;;;30.90;18.80;;;;;;;;;;5014623;28;20222;-44
2023/03/09 13:51:55;;;;;;;31.90;20.17;;;;;;;;;;4998860;28;20182;-43
2023/03/09 13:54:37;;;;;;;36.57;18.93;;;;;;;;;;4993103;28;20651;-43
2023/03/09 13:57:17;;;;;;;28.63;17.23;;;;;;;;;;4996888;28;20558;-43
2023/03/09 13:59:55;;;;;;;33.90;18.53;;;;;;;;;;4985968;28;20229;-43
2023/03/09 14:02:30;;;;;;;27.53;18.10;;;;;;;;;;4997442;28;20698;-43
2023/03/09 14:04:58;;;;;;;27.40;16.50;;;;;;;;;;4996582;28;20230;-42
2023/03/09 14:07:54;;;;;;;27.57;17.03;;;;;;;;;;4997455;28;20254;-44
2023/03/09 14:10:31;;;;;;;26.33;15.37;;;;;;;;;;4986337;28;20237;-43
2023/03/09 14:13:19;;;;;;;29.40;14.93;;;;;;;;;;4997697;28;20328;-43
2023/03/09 14:16:12;;;;;;;22.40;14.53;;;;;;;;;;4992287;28;20230;-45
2023/03/09 14:18:47;;;;;;;20.90;12.47;;;;;;;;;;4993493;28;20213;-45
2023/03/09 14:21:20;;;;;;;19.47;12.20;;;;;;;;;;4998799;28;20222;-45
2023/03/09 14:23:47;;;;;;;19.63;13.00;;;;;;;;;;4983972;28;20234;-45
2023/03/09 14:26:29;;;;;;;20.43;12.37;;;;;;;;;;4991418;28;20222;-46
2023/03/09 14:29:25;;;;;;;19.03;11.67;;;;;;;;;;4979885;28;20234;-44
2023/03/09 14:32:22;;;;;;;22.30;12.33;;;;;;;;;;4977703;28;20296;-45
2023/03/09 14:34:54;;;;;;;18.00;11.17;;;;;;;;;;4994107;28;20217;-47
2023/03/09 14:37:28;;;;;;;20.67;11.47;;;;;;;;;;5006545;28;20228;-46
2023/03/09 14:39:58;;;;;;;18.47;10.87;;;;;;;;;;4995197;28;20610;-45
2023/03/09 14:42:33;;;;;;;19.57;10.97;;;;;;;;;;5007647;28;20223;-45
2023/03/09 14:45:03;;;;;;;21.03;11.30;;;;;;;;;;5018267;28;20256;-46
2023/03/09 14:47:31;;;;;;;17.63;10.77;;;;;;;;;;5002692;28;20275;-45